createdAt,value
2022-11-02T00:03:00.835Z,1.55
2022-11-02T00:07:02.933Z,1.17
2022-11-02T00:11:05.108Z,1.48
2022-11-02T00:15:07.903Z,1.38
2022-11-02T00:19:10.295Z,1.60
2022-11-02T00:23:13.927Z,1.33
2022-11-02T00:27:15.980Z,1.40
2022-11-02T00:31:18.026Z,1.50
2022-11-02T00:35:20.078Z,1.20
2022-11-02T00:39:22.199Z,1.20
2022-11-02T00:43:24.277Z,1.38
2022-11-02T00:47:26.299Z,1.33
2022-11-02T00:51:29.705Z,1.67
2022-11-02T00:55:31.776Z,1.85
2022-11-02T00:59:37.897Z,1.33
2022-11-02T01:03:41.089Z,1.23
2022-11-02T01:07:43.088Z,1.60
2022-11-02T01:11:45.226Z,1.38
2022-11-02T01:15:49.735Z,1.60
2022-11-02T01:19:51.765Z,1.35
2022-11-02T01:23:55.470Z,1.67
2022-11-02T01:27:57.450Z,1.40
2022-11-02T01:31:59.444Z,1.60
2022-11-02T01:36:06.230Z,1.30
2022-11-02T01:40:08.825Z,1.48
2022-11-02T01:44:33.906Z,1.60
2022-11-02T01:48:43.372Z,1.40
2022-11-02T01:52:45.420Z,1.00
2022-11-02T01:56:52.381Z,1.55
2022-11-02T02:00:55.038Z,1.70
2022-11-02T02:05:06.073Z,1.50
2022-11-02T02:09:10.195Z,1.20
2022-11-02T02:13:13.751Z,1.38
2022-11-02T02:17:33.267Z,1.33
2022-11-02T02:21:54.429Z,1.30
2022-11-02T02:26:41.159Z,1.55
2022-11-02T02:30:58.811Z,1.42
2022-11-02T02:39:43.134Z,1.25
2022-11-02T02:43:57.569Z,1.30
2022-11-02T02:48:20.959Z,1.45
2022-11-02T02:52:26.919Z,1.50
2022-11-02T02:56:36.284Z,1.23
2022-11-02T03:00:39.512Z,1.70
2022-11-02T03:04:41.712Z,1.17
2022-11-02T03:08:52.918Z,1.27
2022-11-02T03:13:05.835Z,1.48
2022-11-02T03:17:15.552Z,1.30
2022-11-02T03:21:38.184Z,1.85
2022-11-02T03:26:04.832Z,1.95
2022-11-02T03:30:19.441Z,1.60
2022-11-02T03:34:52.387Z,1.42
2022-11-02T03:39:01.971Z,1.58
2022-11-02T03:43:05.628Z,1.80
2022-11-02T03:47:12.532Z,1.13
2022-11-02T03:51:17.923Z,1.63
2022-11-02T03:55:26.049Z,1.48
2022-11-02T03:59:32.611Z,1.38
2022-11-02T04:03:41.097Z,1.85
2022-11-02T04:08:07.516Z,1.58
2022-11-02T04:12:28.421Z,1.30
2022-11-02T04:16:30.856Z,1.90
2022-11-02T04:20:35.337Z,1.52
2022-11-02T04:24:56.081Z,1.70
2022-11-02T04:28:59.322Z,1.50
2022-11-02T04:33:20.168Z,1.65
2022-11-02T04:37:47.383Z,1.50
2022-11-02T04:41:49.558Z,1.45
2022-11-02T04:46:05.494Z,1.52
2022-11-02T04:50:09.692Z,1.40
2022-11-02T04:54:11.819Z,1.35
2022-11-02T04:58:15.473Z,1.40
2022-11-02T05:02:18.141Z,1.70
2022-11-02T05:06:22.349Z,1.50
2022-11-02T05:10:25.339Z,1.88
2022-11-02T05:14:28.298Z,1.63
2022-11-02T05:18:31.563Z,1.63
2022-11-02T05:22:33.770Z,1.70
2022-11-02T05:26:35.931Z,1.88
2022-11-02T05:30:38.516Z,2.10
2022-11-02T05:34:41.575Z,1.90
2022-11-02T05:38:44.657Z,1.70
2022-11-02T05:42:47.655Z,1.45
2022-11-02T05:46:49.695Z,1.73
2022-11-02T05:50:59.179Z,1.63
2022-11-02T05:55:01.270Z,2.00
2022-11-02T05:59:03.386Z,1.70
2022-11-02T06:03:05.787Z,1.38
2022-11-02T06:07:08.069Z,1.73
2022-11-02T06:11:12.428Z,2.25
2022-11-02T06:15:14.493Z,1.75
2022-11-02T06:19:16.640Z,1.20
2022-11-02T06:23:18.749Z,1.65
2022-11-02T06:27:20.801Z,1.75
2022-11-02T06:31:23.664Z,1.52
2022-11-02T06:35:25.733Z,1.85
2022-11-02T06:39:27.802Z,1.92
2022-11-02T06:43:30.300Z,2.15
2022-11-02T06:47:33.882Z,1.88
2022-11-02T06:51:35.900Z,1.52
2022-11-02T06:55:38.135Z,1.52
2022-11-02T06:59:40.152Z,1.40
2022-11-02T07:03:42.243Z,1.58
2022-11-02T07:07:44.268Z,1.60
2022-11-02T07:11:46.410Z,1.60
2022-11-02T07:15:52.104Z,1.50
2022-11-02T07:19:54.130Z,1.40
2022-11-02T07:23:56.259Z,1.50
2022-11-02T07:28:02.226Z,1.80
2022-11-02T07:32:04.565Z,2.42
2022-11-02T07:36:06.873Z,2.00
2022-11-02T07:40:10.849Z,1.55
2022-11-02T07:44:12.871Z,2.13
2022-11-02T07:48:28.416Z,1.38
2022-11-02T07:52:30.398Z,1.55
2022-11-02T07:56:32.370Z,1.83
2022-11-02T08:00:39.313Z,1.88
2022-11-02T08:04:44.788Z,2.00
2022-11-02T08:08:47.279Z,1.65
2022-11-02T08:12:49.474Z,1.70
2022-11-02T08:16:52.392Z,1.55
2022-11-02T08:20:59.123Z,1.50
2022-11-02T08:25:01.199Z,1.30
2022-11-02T08:29:03.314Z,1.58
2022-11-02T08:33:07.879Z,1.33
2022-11-02T08:37:09.951Z,1.85
2022-11-02T08:41:11.959Z,1.77
2022-11-02T08:45:14.163Z,1.55
2022-11-02T08:49:18.668Z,1.60
2022-11-02T08:53:20.795Z,1.27
2022-11-02T08:57:22.808Z,1.30
2022-11-02T09:01:24.885Z,1.38
2022-11-02T09:05:29.086Z,1.60
2022-11-02T09:09:31.168Z,1.70
2022-11-02T09:13:33.217Z,1.63
2022-11-02T09:17:35.256Z,1.38
2022-11-02T09:21:37.647Z,1.42
2022-11-02T09:25:39.694Z,1.40
2022-11-02T09:29:41.689Z,1.10
2022-11-02T09:33:43.695Z,0.90
2022-11-02T09:37:49.982Z,1.00
2022-11-02T09:46:16.682Z,1.10
2022-11-02T09:50:42.126Z,1.17
2022-11-02T09:54:49.370Z,0.80
2022-11-02T09:59:02.049Z,1.10
2022-11-02T10:03:16.361Z,1.33
2022-11-02T10:07:22.725Z,0.93
2022-11-02T10:11:40.962Z,1.00
2022-11-02T10:15:54.463Z,0.90
2022-11-02T10:19:59.913Z,1.10
2022-11-02T10:24:22.367Z,1.55
2022-11-02T10:28:29.182Z,1.00
2022-11-02T10:32:35.203Z,1.13
2022-11-02T10:36:37.220Z,1.17
2022-11-02T10:40:53.786Z,0.98
2022-11-02T10:45:17.754Z,0.93
2022-11-02T10:49:19.723Z,2.05
2022-11-02T10:57:43.959Z,1.70
2022-11-02T11:02:04.271Z,1.90
2022-11-02T11:06:06.443Z,0.80
2022-11-02T11:10:15.305Z,0.77
2022-11-02T11:23:25.135Z,1.00
2022-11-02T11:27:27.177Z,0.90
2022-11-02T11:31:30.840Z,0.88
2022-11-02T11:35:39.281Z,0.80
2022-11-02T11:39:45.287Z,0.85
2022-11-02T11:43:48.503Z,0.90
2022-11-02T11:47:54.212Z,0.80
2022-11-02T11:51:58.179Z,0.95
2022-11-02T11:56:00.830Z,0.68
2022-11-02T12:00:27.493Z,1.23
2022-11-02T12:04:37.379Z,1.00
2022-11-02T12:09:03.052Z,1.00
2022-11-02T12:13:15.525Z,1.20
2022-11-02T12:17:36.367Z,1.52
2022-11-02T12:21:48.815Z,1.42
2022-11-02T12:26:05.899Z,1.48
2022-11-02T12:30:20.140Z,1.13
2022-11-02T12:35:23.169Z,1.10
2022-11-02T12:39:41.813Z,1.10
2022-11-02T12:43:49.448Z,1.00
2022-11-02T12:47:59.014Z,1.05
2022-11-02T12:52:19.875Z,1.05
2022-11-02T12:56:39.279Z,1.10
2022-11-02T13:00:45.312Z,0.90
2022-11-02T13:05:08.047Z,1.10
2022-11-02T13:09:12.887Z,0.70
2022-11-02T13:13:19.554Z,0.82
2022-11-02T13:17:37.100Z,0.95
2022-11-02T13:21:46.521Z,0.98
2022-11-02T13:25:54.077Z,0.68
2022-11-02T13:30:01.630Z,0.52
2022-11-02T13:34:10.418Z,0.70
2022-11-02T13:38:12.354Z,1.10
2022-11-02T13:42:41.683Z,0.80
2022-11-02T13:46:57.753Z,0.80
2022-11-02T13:51:07.038Z,1.00
2022-11-02T13:55:15.949Z,0.90
2022-11-02T13:59:26.049Z,0.55
2022-11-02T14:03:46.800Z,0.73
2022-11-02T14:07:50.209Z,0.82
2022-11-02T14:12:22.186Z,1.20
2022-11-02T14:16:46.590Z,0.80
2022-11-02T14:20:48.639Z,0.95
2022-11-02T14:24:53.835Z,0.80
2022-11-02T14:28:56.284Z,0.90
2022-11-02T14:33:14.948Z,0.68
2022-11-02T14:37:35.851Z,1.20
2022-11-02T14:42:04.279Z,1.20
2022-11-02T14:46:41.829Z,1.20
2022-11-02T14:51:00.692Z,2.10
2022-11-02T14:55:17.980Z,1.20
2022-11-02T14:59:22.344Z,0.88
2022-11-02T15:03:24.315Z,0.95
2022-11-02T15:07:36.676Z,1.08
2022-11-02T15:11:56.973Z,0.95
2022-11-02T15:15:58.924Z,1.23
2022-11-02T15:20:09.921Z,1.35
2022-11-02T15:24:17.512Z,1.10
2022-11-02T15:28:24.046Z,1.27
2022-11-02T15:32:29.923Z,1.25
2022-11-02T15:36:43.461Z,0.98
2022-11-02T15:41:02.900Z,0.95
2022-11-02T15:50:08.226Z,1.35
2022-11-02T15:54:23.423Z,1.30
2022-11-02T15:58:33.360Z,1.20
2022-11-02T16:02:53.952Z,1.67
2022-11-02T16:06:56.046Z,1.33
2022-11-02T16:11:09.990Z,1.80
2022-11-02T16:15:14.980Z,0.82
2022-11-02T16:19:21.568Z,1.10
2022-11-02T16:23:26.780Z,1.20
2022-11-02T16:27:28.842Z,1.20
2022-11-02T16:31:31.444Z,1.27
2022-11-02T16:35:34.067Z,1.30
2022-11-02T16:39:39.537Z,1.33
2022-11-02T16:43:45.743Z,1.95
2022-11-02T16:47:48.119Z,1.70
2022-11-02T16:51:58.367Z,1.40
2022-11-02T16:56:30.663Z,1.17
2022-11-02T17:00:33.101Z,1.50
2022-11-02T17:04:40.729Z,1.40
2022-11-02T17:08:45.456Z,1.95
2022-11-02T17:12:48.628Z,2.10
2022-11-02T17:17:06.670Z,1.83
2022-11-02T17:21:30.223Z,2.03
2022-11-02T17:25:37.571Z,2.20
2022-11-02T17:33:43.633Z,4.35
2022-11-02T17:37:45.761Z,3.45
2022-11-02T17:42:15.118Z,3.08
2022-11-02T17:46:17.221Z,3.42
2022-11-02T17:50:19.560Z,2.92
2022-11-02T17:54:21.720Z,3.45
2022-11-02T17:58:23.783Z,2.90
2022-11-02T18:02:25.948Z,3.13
2022-11-02T18:06:29.694Z,3.47
2022-11-02T18:10:34.482Z,3.97
2022-11-02T18:14:36.700Z,3.95
2022-11-02T18:18:38.740Z,13.32
2022-11-02T18:22:41.228Z,5.55
2022-11-02T18:26:46.793Z,3.58
2022-11-02T18:30:49.169Z,2.88
2022-11-02T18:34:51.155Z,2.53
2022-11-02T18:38:53.230Z,3.25
2022-11-02T18:42:55.236Z,2.70
2022-11-02T18:46:59.210Z,2.40
2022-11-02T18:51:04.518Z,3.00
2022-11-02T18:55:07.050Z,2.30
2022-11-02T18:59:09.209Z,2.60
2022-11-02T19:03:11.499Z,3.28
2022-11-02T19:07:32.326Z,3.13
2022-11-02T19:11:35.580Z,3.10
2022-11-02T19:15:42.505Z,3.45
2022-11-02T19:19:46.528Z,3.90
2022-11-02T19:23:48.567Z,2.65
2022-11-02T19:27:50.575Z,2.90
2022-11-02T19:31:52.613Z,3.10
2022-11-02T19:35:56.050Z,3.15
2022-11-02T19:39:58.146Z,3.13
2022-11-02T19:44:00.331Z,4.03
2022-11-02T19:48:02.593Z,4.35
2022-11-02T19:52:04.761Z,4.63
2022-11-02T19:56:11.278Z,4.72
2022-11-02T20:00:13.863Z,3.60
2022-11-02T20:04:15.904Z,3.17
2022-11-02T20:08:17.896Z,8.70
2022-11-02T20:12:19.898Z,7.15
2022-11-02T20:16:22.130Z,8.05
2022-11-02T20:20:24.374Z,8.85
2022-11-02T20:24:26.373Z,8.30
2022-11-02T20:28:28.673Z,9.60
2022-11-02T20:32:30.754Z,8.82
2022-11-02T20:36:32.870Z,8.40
2022-11-02T20:40:40.167Z,8.63
2022-11-02T20:44:49.020Z,5.60
2022-11-02T20:48:51.307Z,5.40
2022-11-02T20:52:55.275Z,3.50
2022-11-02T20:56:57.699Z,3.20
2022-11-02T21:00:59.797Z,2.85
2022-11-02T21:05:01.906Z,3.03
2022-11-02T21:09:09.068Z,3.05
2022-11-02T21:13:32.661Z,2.08
2022-11-02T21:17:35.023Z,1.92
2022-11-02T21:21:37.067Z,2.05
2022-11-02T21:25:39.173Z,1.90
2022-11-02T21:29:41.182Z,1.50
2022-11-02T21:33:44.656Z,1.63
2022-11-02T21:37:46.874Z,1.90
2022-11-02T21:41:48.920Z,1.63
2022-11-02T21:45:58.906Z,1.40
2022-11-02T21:50:02.253Z,1.75
2022-11-02T21:54:04.308Z,1.40
2022-11-02T21:58:06.623Z,1.65
2022-11-02T22:02:09.334Z,1.60
2022-11-02T22:06:11.771Z,1.98
2022-11-02T22:10:14.208Z,1.92
2022-11-02T22:14:16.245Z,2.53
2022-11-02T22:18:18.272Z,2.97
2022-11-02T22:22:20.322Z,3.58
2022-11-02T22:26:24.872Z,4.38
2022-11-02T22:30:29.336Z,3.97
2022-11-02T22:34:31.531Z,3.90
2022-11-02T22:38:48.804Z,6.03
2022-11-02T22:42:53.939Z,6.03
2022-11-02T22:46:55.982Z,4.30
2022-11-02T22:50:58.371Z,4.40
2022-11-02T22:55:00.406Z,3.90
2022-11-02T22:59:03.730Z,3.60
2022-11-02T23:03:06.011Z,3.38
2022-11-02T23:07:08.299Z,3.10
2022-11-02T23:11:22.577Z,2.83
2022-11-02T23:15:24.631Z,2.53
2022-11-02T23:19:29.467Z,2.53
2022-11-02T23:23:50.695Z,2.58
2022-11-02T23:28:16.799Z,2.95
2022-11-02T23:32:28.626Z,3.45
2022-11-02T23:36:30.654Z,3.83
2022-11-02T23:40:33.075Z,4.53
2022-11-02T23:44:35.125Z,4.97
2022-11-02T23:48:37.196Z,4.20
2022-11-02T23:52:57.934Z,4.20
2022-11-02T23:56:59.990Z,4.53
